Babbitt, Minnesota
Current Conditions -  °F | °C
As of 6:13 PM on Sunday 23 Nov 2014 (Local Time) from KELO Reporting Station
Haze Haze  
Wind Chill: 34°   Ceiling: 300
Heat Index: 34°   Visibility: 2.5mi
Dew Point: 34°   Wind: 3mph
Humidity: 100%   Direction: 300°WNW
Pressure: 29.37"   Gusts: NA
Location:  47.71°N, 91.94°W
Report Text: KELO 240013Z AUTO 30003KT 2 1/2SM BR OVC003 01/01 A2937 RMK AO2
Loading
Personal Weather Stations






























Interactive Weather Map New forecast layout! Learn more

10-Day Weather Forecast

Advertisements
Track Severe Weather on mobile